createdAt,value
2022-10-12T00:03:35.380Z,98881.91
2022-10-12T00:08:40.896Z,98871.66
2022-10-12T00:13:43.818Z,98839.41
2022-10-12T00:18:46.505Z,98820.19
2022-10-12T00:23:50.488Z,98794.50
2022-10-12T00:28:56.898Z,98783.72
2022-10-12T00:34:01.986Z,98751.84
2022-10-12T00:39:08.004Z,98729.50
2022-10-12T00:44:36.399Z,98695.09
2022-10-12T00:49:38.959Z,98687.56
2022-10-12T00:54:48.147Z,98652.81
2022-10-12T00:59:52.008Z,98647.22
2022-10-12T01:04:54.989Z,98626.88
2022-10-12T01:09:58.883Z,98599.31
2022-10-12T01:15:01.749Z,98586.78
2022-10-12T01:20:29.438Z,98570.06
2022-10-12T01:25:44.534Z,98540.72
2022-10-12T01:30:49.747Z,98518.34
2022-10-12T01:35:55.731Z,98497.91
2022-10-12T01:41:03.200Z,98472.50
2022-10-12T01:46:38.631Z,98448.97
2022-10-12T01:52:01.425Z,98438.34
2022-10-12T01:57:09.326Z,98415.91
2022-10-12T02:02:19.284Z,98374.34
2022-10-12T02:07:28.287Z,98358.53
2022-10-12T02:12:32.608Z,98355.94
2022-10-12T02:17:36.504Z,98347.03
2022-10-12T02:22:42.484Z,98321.03
2022-10-12T02:27:47.779Z,98315.41
2022-10-12T02:32:54.194Z,98287.84
2022-10-12T02:38:03.256Z,98278.97
2022-10-12T02:43:11.221Z,98276.19
2022-10-12T02:48:17.688Z,98238.09
2022-10-12T02:53:21.430Z,98236.00
2022-10-12T02:58:23.988Z,98236.59
2022-10-12T03:03:26.583Z,98215.81
2022-10-12T03:08:30.524Z,98196.69
2022-10-12T03:13:33.435Z,98187.06
2022-10-12T03:18:36.510Z,98186.75
2022-10-12T03:23:40.745Z,98160.16
2022-10-12T03:28:43.487Z,98164.13
2022-10-12T03:33:46.179Z,98162.06
2022-10-12T03:38:50.050Z,98145.59
2022-10-12T03:43:52.578Z,98164.31
2022-10-12T03:48:55.106Z,98175.88
2022-10-12T03:53:59.031Z,98150.88
2022-10-12T03:59:01.584Z,98152.47
2022-10-12T04:04:04.216Z,98139.38
2022-10-12T04:09:08.085Z,98122.06
2022-10-12T04:14:10.822Z,98125.41
2022-10-12T04:19:14.152Z,98131.84
2022-10-12T04:24:18.298Z,98106.16
2022-10-12T04:29:22.040Z,98080.22
2022-10-12T04:34:24.601Z,98093.72
2022-10-12T04:39:28.492Z,98069.69
2022-10-12T04:44:32.422Z,98059.84
2022-10-12T04:49:35.241Z,98038.38
2022-10-12T04:54:39.161Z,98069.75
2022-10-12T04:59:41.748Z,98045.50
2022-10-12T05:04:44.358Z,98009.47
2022-10-12T05:09:48.311Z,98001.63
2022-10-12T05:14:50.840Z,97977.31
2022-10-12T05:19:53.397Z,97961.53
2022-10-12T05:24:57.360Z,97956.88
2022-10-12T05:30:00.019Z,97929.31
2022-10-12T05:35:03.058Z,97928.31
2022-10-12T05:40:08.068Z,97924.88
2022-10-12T05:45:11.547Z,97907.47
2022-10-12T05:50:14.106Z,97912.53
2022-10-12T05:55:18.397Z,97908.25
2022-10-12T06:00:21.576Z,97886.66
2022-10-12T06:05:24.995Z,97876.22
2022-10-12T06:10:30.112Z,97877.13
2022-10-12T06:15:32.791Z,97856.84
2022-10-12T06:20:35.360Z,97857.56
2022-10-12T06:25:39.263Z,97818.16
2022-10-12T06:30:41.871Z,97793.31
2022-10-12T06:35:44.467Z,97783.88
2022-10-12T06:40:48.507Z,97743.56
2022-10-12T06:45:51.386Z,97731.44
2022-10-12T06:50:54.034Z,97710.72
2022-10-12T06:55:57.940Z,97691.88
2022-10-12T07:01:03.155Z,97689.38
2022-10-12T07:06:08.303Z,97660.13
2022-10-12T07:11:13.657Z,97464.03
2022-10-12T07:16:16.719Z,97392.09
2022-10-12T07:21:19.267Z,97336.41
2022-10-12T07:26:23.176Z,97372.13
2022-10-12T07:31:25.735Z,97416.47
2022-10-12T07:36:47.285Z,97466.09
2022-10-12T07:41:53.086Z,97547.63
2022-10-12T07:46:55.634Z,97541.50
2022-10-12T07:51:58.178Z,97516.34
2022-10-12T07:57:02.087Z,97505.06
2022-10-12T08:02:04.719Z,97482.66
2022-10-12T08:07:07.377Z,97486.13
2022-10-12T08:12:12.186Z,97500.94
2022-10-12T08:17:14.896Z,97472.41
2022-10-12T08:22:17.459Z,97414.19
2022-10-12T08:27:21.325Z,97395.06
2022-10-12T08:32:24.903Z,97378.63
2022-10-12T08:37:27.448Z,97401.41
2022-10-12T08:42:39.473Z,97384.84
2022-10-12T08:47:43.456Z,97390.97
2022-10-12T08:52:51.950Z,97414.59
2022-10-12T08:57:55.862Z,97276.31
2022-10-12T09:03:08.499Z,97310.47
2022-10-12T09:08:16.109Z,97487.28
2022-10-12T09:13:31.292Z,97527.56
2022-10-12T09:18:40.769Z,97563.47
2022-10-12T09:23:44.236Z,97552.19
2022-10-12T09:28:51.133Z,97616.16
2022-10-12T09:33:55.894Z,97694.09
2022-10-12T09:38:59.731Z,97733.56
2022-10-12T09:44:05.318Z,97780.97
2022-10-12T09:49:08.095Z,97831.00
2022-10-12T09:54:18.140Z,97885.41
2022-10-12T09:59:28.088Z,97933.81
2022-10-12T10:04:31.062Z,98061.94
2022-10-12T10:09:35.018Z,98109.34
2022-10-12T10:14:38.947Z,98204.09
2022-10-12T10:19:41.541Z,98267.44
2022-10-12T10:24:44.251Z,98342.16
2022-10-12T10:29:52.566Z,98418.31
2022-10-12T10:35:03.463Z,98487.03
2022-10-12T10:40:07.029Z,98545.84
2022-10-12T10:45:23.635Z,98603.25
2022-10-12T10:50:27.191Z,98678.34
2022-10-12T10:55:43.125Z,98750.13
2022-10-12T11:00:48.469Z,98859.41
2022-10-12T11:05:54.533Z,98987.44
2022-10-12T11:11:00.325Z,99122.41
2022-10-12T11:16:10.179Z,99288.66
2022-10-12T11:21:14.296Z,99385.78
2022-10-12T11:26:23.568Z,99479.56
2022-10-12T11:31:29.955Z,99577.69
2022-10-12T11:36:33.103Z,99647.84
2022-10-12T11:42:03.083Z,99713.59
2022-10-12T11:47:15.279Z,99824.97
2022-10-12T11:52:18.814Z,99898.03
2022-10-12T11:57:25.319Z,99982.72
2022-10-12T12:02:32.201Z,100053.16
2022-10-12T12:07:41.618Z,100128.22
2022-10-12T12:13:11.178Z,100208.09
2022-10-12T12:18:17.410Z,100255.56
2022-10-12T12:23:21.582Z,100287.94
2022-10-12T12:28:25.393Z,100346.00
2022-10-12T12:33:31.599Z,100413.78
2022-10-12T12:38:35.113Z,100439.75
2022-10-12T12:43:54.797Z,100477.94
2022-10-12T12:49:03.389Z,100506.56
2022-10-12T12:54:08.604Z,100527.94
2022-10-12T12:59:33.448Z,100578.97
2022-10-12T13:04:49.638Z,100604.78
2022-10-12T13:10:11.649Z,100633.19
2022-10-12T13:15:24.712Z,100643.53
2022-10-12T13:20:31.815Z,100658.47
2022-10-12T13:25:37.796Z,100670.78
2022-10-12T13:30:42.657Z,100682.16
2022-10-12T13:35:49.942Z,100704.97
2022-10-12T13:41:02.049Z,100714.53
2022-10-12T13:46:04.650Z,100688.00
2022-10-12T13:51:27.449Z,100680.50
2022-10-12T13:56:30.838Z,100665.94
2022-10-12T14:01:35.371Z,100687.88
2022-10-12T14:06:39.280Z,100687.09
2022-10-12T14:11:43.699Z,100698.19
2022-10-12T14:16:46.258Z,100695.28
2022-10-12T14:21:50.629Z,100701.75
2022-10-12T14:26:54.640Z,100703.38
2022-10-12T14:31:58.438Z,100708.53
2022-10-12T14:37:03.502Z,100703.94
2022-10-12T14:42:19.710Z,100709.78
2022-10-12T14:47:23.954Z,100691.28
2022-10-12T14:52:36.153Z,100697.81
2022-10-12T14:57:38.716Z,100686.16
2022-10-12T15:02:42.937Z,100674.59
2022-10-12T15:07:47.471Z,100680.19
2022-10-12T15:12:50.413Z,100672.28
2022-10-12T15:17:53.396Z,100657.66
2022-10-12T15:22:57.443Z,100633.41
2022-10-12T15:28:00.000Z,100634.47
2022-10-12T15:33:02.548Z,100628.66
2022-10-12T15:38:06.515Z,100615.19
2022-10-12T15:43:10.644Z,100598.03
2022-10-12T15:48:13.227Z,100577.25
2022-10-12T15:53:18.002Z,100551.31
2022-10-12T15:58:20.730Z,100545.91
2022-10-12T16:03:26.253Z,100529.44
2022-10-12T16:08:30.371Z,100510.50
2022-10-12T16:13:33.086Z,100488.97
2022-10-12T16:18:35.643Z,100461.16
2022-10-12T16:23:40.645Z,100435.25
2022-10-12T16:28:43.528Z,100402.22
2022-10-12T16:33:46.504Z,100364.03
2022-10-12T16:38:50.402Z,100333.56
2022-10-12T16:43:55.330Z,100304.06
2022-10-12T16:48:57.888Z,100283.41
2022-10-12T16:54:01.764Z,100252.09
2022-10-12T16:59:04.342Z,100214.94
2022-10-12T17:04:06.899Z,100180.38
2022-10-12T17:09:10.881Z,100141.50
2022-10-12T17:14:16.559Z,100105.19
2022-10-12T17:19:20.665Z,100049.22
2022-10-12T17:24:26.224Z,99992.94
2022-10-12T17:29:29.849Z,99962.28
2022-10-12T17:34:34.679Z,99941.13
2022-10-12T17:39:40.958Z,99906.34
2022-10-12T17:44:43.505Z,99863.47
2022-10-12T17:49:46.058Z,99849.16
2022-10-12T17:54:49.949Z,99791.97
2022-10-12T17:59:52.506Z,99754.00
2022-10-12T18:04:55.053Z,99738.75
2022-10-12T18:15:08.377Z,99651.59
2022-10-12T18:20:11.822Z,99631.63
2022-10-12T18:25:16.111Z,99593.91
2022-10-12T18:30:18.763Z,99550.72
2022-10-12T18:35:21.304Z,99503.97
2022-10-12T18:40:25.229Z,99480.06
2022-10-12T18:45:28.232Z,99446.63
2022-10-12T18:50:30.834Z,99415.88
2022-10-12T18:55:37.116Z,99375.22
2022-10-12T19:00:41.022Z,99347.78
2022-10-12T19:05:43.572Z,99314.97
2022-10-12T19:10:47.474Z,99272.47
2022-10-12T19:15:50.417Z,99222.91
2022-10-12T19:20:53.792Z,99183.25
2022-10-12T19:25:57.704Z,99156.03
2022-10-12T19:31:00.560Z,99124.34
2022-10-12T19:36:03.382Z,99100.41
2022-10-12T19:41:07.825Z,99079.09
2022-10-12T19:46:11.555Z,99045.38
2022-10-12T19:51:14.399Z,99023.22
2022-10-12T19:56:20.723Z,98971.38
2022-10-12T20:01:25.689Z,98924.09
2022-10-12T20:06:29.808Z,98894.88
2022-10-12T20:11:33.878Z,98858.22
2022-10-12T20:16:37.268Z,98833.34
2022-10-12T20:21:39.814Z,98795.59
2022-10-12T20:26:43.722Z,98755.16
2022-10-12T20:31:46.267Z,98737.97
2022-10-12T20:36:48.837Z,98698.47
2022-10-12T20:41:52.717Z,98662.59
2022-10-12T20:46:55.287Z,98604.72
2022-10-12T20:51:57.850Z,98574.78
2022-10-12T20:57:01.773Z,98544.03
2022-10-12T21:02:04.392Z,98490.63
2022-10-12T21:07:07.056Z,98444.16
2022-10-12T21:12:11.209Z,98405.66
2022-10-12T21:17:13.837Z,98369.63
2022-10-12T21:22:16.784Z,98352.84
2022-10-12T21:27:20.976Z,98297.66
2022-10-12T21:32:23.534Z,98270.38
2022-10-12T21:37:26.085Z,98218.69
2022-10-12T21:42:29.978Z,98181.78
2022-10-12T21:47:32.521Z,98135.31
2022-10-12T21:52:35.092Z,98091.53
2022-10-12T21:57:38.992Z,98052.97
2022-10-12T22:02:41.526Z,98019.69
2022-10-12T22:07:44.105Z,97983.72
2022-10-12T22:12:47.986Z,97946.09
2022-10-12T22:17:50.566Z,97933.75
2022-10-12T22:22:53.150Z,97926.69
2022-10-12T22:27:57.374Z,97890.78
2022-10-12T22:32:59.922Z,97878.44
2022-10-12T22:38:02.510Z,97850.41
2022-10-12T22:43:06.404Z,97804.88
2022-10-12T22:48:08.971Z,97784.75
2022-10-12T22:53:11.596Z,97761.13
2022-10-12T22:58:16.160Z,97722.47
2022-10-12T23:03:18.707Z,97660.44
2022-10-12T23:08:21.274Z,97619.28
2022-10-12T23:13:25.253Z,97577.31
2022-10-12T23:18:27.815Z,97562.41
2022-10-12T23:23:30.355Z,97549.25
2022-10-12T23:28:34.629Z,97539.63
2022-10-12T23:33:37.522Z,97498.53
2022-10-12T23:38:41.168Z,97482.75
2022-10-12T23:43:45.121Z,97480.13
2022-10-12T23:48:47.673Z,97474.00
2022-10-12T23:53:50.260Z,97448.66
2022-10-12T23:58:54.185Z,97452.97
